Aegean Vision — SVCO7 — position and weather

sailwx.info

Track history (hours):
 
Tides and Currents Weather Stations Pressure Air Temp Water Temp Dewpoint Dewpoint Depression Visibility Wind Speed Wind Dir Waves Ship Positions

Aegean Vision

Last reported at 2018-Jul-17 10:30 UTC. Time now 2018-Jul-21 21:22 UTC.
Position N 32°50' E 018°59'.

Length 274 m; draft 15 m.

Type: Ship (hazmat cat C). MMSI: 241493000.

Date/timePositionNaut miles runAvg speedWind from/ knotsBaromVisibWave heightAir tempDewpointWater temp
2018-Jul-17 10:30N 32°50' E 018°59'713.1
2018-Jul-17 09:59N 32°43' E 018°57'  
2018-Jul-13 18:47N 30°54' E 020°01'31710.4
2018-Jul-12 12:21N 35°09' E 016°16'714.2
2018-Jul-12 11:53N 35°14' E 016°11'3313.5
2018-Jul-12 09:27N 35°38' E 015°43'1 1.2
2018-Jul-12 09:00N 35°38' E 015°43'0 0.5
2018-Jul-12 08:30N 35°38' E 015°43'0 0.5
2018-Jul-12 08:00N 35°39' E 015°43'0 0.6
2018-Jul-12 07:30N 35°39' E 015°43'0 0.5
2018-Jul-12 07:00N 35°39' E 015°43'0 0.4
2018-Jul-12 05:49N 35°39' E 015°43'0 0.4
2018-Jul-12 05:31N 35°40' E 015°43'0 0.3
2018-Jul-12 05:00N 35°40' E 015°43'0 0.3
2018-Jul-12 04:29N 35°40' E 015°43'0 0.4
2018-Jul-12 03:29N 35°40' E 015°43'0 0.4
2018-Jul-12 03:00N 35°40' E 015°43'11 0.3
2018-Jul-10 12:43N 35°29' E 015°41'4 7.7
2018-Jul-10 12:10N 35°27' E 015°45'212.4
2018-Jul-10 12:00N 35°26' E 015°47'612.5
2018-Jul-10 11:30N 35°21' E 015°52'  
2018-Jul-07 11:04N 35°30' E 016°03'0 1.2
2018-Jul-07 11:00N 35°30' E 016°03'  
Track history (hours):
 
Tides and Currents Weather Stations Pressure Air Temp Water Temp Dewpoint Dewpoint Depression Visibility Wind Speed Wind Dir Waves Ship Positions

Aegean Vision

Last reported at 2018-Jul-17 10:30 UTC. Time now 2018-Jul-21 21:22 UTC.
Position N 32°50' E 018°59'.

Length 274 m; draft 15 m.

Type: Ship (hazmat cat C). MMSI: 241493000.

Date/timePositionNaut miles runAvg speedWind from/ knotsBaromVisibWave heightAir tempDewpointWater temp
2018-Jul-17 10:30N 32°50' E 018°59'713.1
2018-Jul-17 09:59N 32°43' E 018°57'  
2018-Jul-13 18:47N 30°54' E 020°01'31710.4
2018-Jul-12 12:21N 35°09' E 016°16'714.2
2018-Jul-12 11:53N 35°14' E 016°11'3313.5
2018-Jul-12 09:27N 35°38' E 015°43'1 1.2
2018-Jul-12 09:00N 35°38' E 015°43'0 0.5
2018-Jul-12 08:30N 35°38' E 015°43'0 0.5
2018-Jul-12 08:00N 35°39' E 015°43'0 0.6
2018-Jul-12 07:30N 35°39' E 015°43'0 0.5
2018-Jul-12 07:00N 35°39' E 015°43'0 0.4
2018-Jul-12 05:49N 35°39' E 015°43'0 0.4
2018-Jul-12 05:31N 35°40' E 015°43'0 0.3
2018-Jul-12 05:00N 35°40' E 015°43'0 0.3
2018-Jul-12 04:29N 35°40' E 015°43'0 0.4
2018-Jul-12 03:29N 35°40' E 015°43'0 0.4
2018-Jul-12 03:00N 35°40' E 015°43'11 0.3
2018-Jul-10 12:43N 35°29' E 015°41'4 7.7
2018-Jul-10 12:10N 35°27' E 015°45'212.4
2018-Jul-10 12:00N 35°26' E 015°47'612.5
2018-Jul-10 11:30N 35°21' E 015°52'  
2018-Jul-07 11:04N 35°30' E 016°03'0 1.2
2018-Jul-07 11:00N 35°30' E 016°03'  

Dump ship's entire track history